createdAt,value
2022-08-26T00:01:31.902Z,20.60
2022-08-26T00:03:58.852Z,20.60
2022-08-26T00:06:25.689Z,20.50
2022-08-26T00:08:52.264Z,20.60
2022-08-26T00:11:26.295Z,20.60
2022-08-26T00:13:53.161Z,20.60
2022-08-26T00:16:20.014Z,20.50
2022-08-26T00:18:46.595Z,20.50
2022-08-26T00:21:13.325Z,20.50
2022-08-26T00:23:40.667Z,20.40
2022-08-26T00:26:08.224Z,20.40
2022-08-26T00:28:35.297Z,20.40
2022-08-26T00:31:01.945Z,20.40
2022-08-26T00:33:28.500Z,20.40
2022-08-26T00:35:55.119Z,20.30
2022-08-26T00:38:22.221Z,20.30
2022-08-26T00:40:52.136Z,20.20
2022-08-26T00:43:19.404Z,20.20
2022-08-26T00:45:52.267Z,20.20
2022-08-26T00:48:21.394Z,20.10
2022-08-26T00:50:54.473Z,20.10
2022-08-26T00:53:23.992Z,20.10
2022-08-26T00:55:54.330Z,20.10
2022-08-26T00:58:22.510Z,20.10
2022-08-26T01:00:49.259Z,20.10
2022-08-26T01:03:17.070Z,20.00
2022-08-26T01:05:43.770Z,19.90
2022-08-26T01:08:10.540Z,19.90
2022-08-26T01:10:37.186Z,19.90
2022-08-26T01:13:06.879Z,19.90
2022-08-26T01:15:45.121Z,19.80
2022-08-26T01:18:11.878Z,19.90
2022-08-26T01:20:47.781Z,19.80
2022-08-26T01:23:15.074Z,19.80
2022-08-26T01:25:43.576Z,19.80
2022-08-26T01:28:13.701Z,19.70
2022-08-26T01:30:41.684Z,19.70
2022-08-26T01:33:10.957Z,19.70
2022-08-26T01:35:38.250Z,19.70
2022-08-26T01:38:04.862Z,19.70
2022-08-26T01:40:33.761Z,19.60
2022-08-26T01:43:01.358Z,19.60
2022-08-26T01:45:30.311Z,19.60
2022-08-26T01:47:57.991Z,19.60
2022-08-26T01:50:30.621Z,19.50
2022-08-26T01:52:59.070Z,19.50
2022-08-26T01:55:33.408Z,19.50
2022-08-26T01:58:04.607Z,19.50
2022-08-26T02:00:32.741Z,19.40
2022-08-26T02:03:17.508Z,19.40
2022-08-26T02:06:04.557Z,19.30
2022-08-26T02:08:35.894Z,19.30
2022-08-26T02:11:02.704Z,19.30
2022-08-26T02:13:31.364Z,19.20
2022-08-26T02:15:58.746Z,19.30
2022-08-26T02:18:25.677Z,19.30
2022-08-26T02:20:54.058Z,19.30
2022-08-26T02:23:20.671Z,19.20
2022-08-26T02:26:00.336Z,19.20
2022-08-26T02:28:28.521Z,19.20
2022-08-26T02:30:55.731Z,19.20
2022-08-26T02:33:22.542Z,19.20
2022-08-26T02:35:49.123Z,19.20
2022-08-26T02:38:15.737Z,19.20
2022-08-26T02:40:43.769Z,19.20
2022-08-26T02:43:12.235Z,19.20
2022-08-26T02:45:40.178Z,19.10
2022-08-26T02:48:12.005Z,19.10
2022-08-26T02:50:39.278Z,19.10
2022-08-26T02:53:06.171Z,19.00
2022-08-26T02:55:32.996Z,19.00
2022-08-26T02:57:59.827Z,19.00
2022-08-26T03:00:26.542Z,18.90
2022-08-26T03:02:53.272Z,18.90
2022-08-26T03:05:22.237Z,18.90
2022-08-26T03:07:51.031Z,18.80
2022-08-26T03:10:17.906Z,18.80
2022-08-26T03:12:48.101Z,18.80
2022-08-26T03:15:17.938Z,18.80
2022-08-26T03:17:49.104Z,18.80
2022-08-26T03:20:17.638Z,18.80
2022-08-26T03:22:44.908Z,18.70
2022-08-26T03:25:12.866Z,18.70
2022-08-26T03:27:41.469Z,18.70
2022-08-26T03:30:28.849Z,18.70
2022-08-26T03:32:55.438Z,18.70
2022-08-26T03:35:22.431Z,18.70
2022-08-26T03:37:49.277Z,18.70
2022-08-26T03:40:16.272Z,18.70
2022-08-26T03:42:47.727Z,18.70
2022-08-26T03:45:15.547Z,18.70
2022-08-26T03:47:42.266Z,18.60
2022-08-26T03:50:10.044Z,18.60
2022-08-26T03:52:39.639Z,18.60
2022-08-26T03:55:10.778Z,18.50
2022-08-26T03:57:37.350Z,18.50
2022-08-26T04:00:05.582Z,18.50
2022-08-26T04:02:32.207Z,18.50
2022-08-26T04:04:58.794Z,18.50
2022-08-26T04:07:25.987Z,18.50
2022-08-26T04:09:56.342Z,18.50
2022-08-26T04:12:23.499Z,18.50
2022-08-26T04:14:52.464Z,18.50
2022-08-26T04:17:21.046Z,18.50
2022-08-26T04:19:54.983Z,18.40
2022-08-26T04:22:24.789Z,18.40
2022-08-26T04:24:51.962Z,18.40
2022-08-26T04:27:18.618Z,18.40
2022-08-26T04:29:46.543Z,18.40
2022-08-26T04:32:15.441Z,18.40
2022-08-26T04:34:43.383Z,18.40
2022-08-26T04:37:11.698Z,18.40
2022-08-26T04:39:38.274Z,18.40
2022-08-26T04:42:05.869Z,18.40
2022-08-26T04:44:34.647Z,18.40
2022-08-26T04:47:01.249Z,18.40
2022-08-26T04:49:35.149Z,18.40
2022-08-26T04:52:02.758Z,18.40
2022-08-26T04:54:29.339Z,18.40
2022-08-26T04:56:56.078Z,18.50
2022-08-26T04:59:22.798Z,18.50
2022-08-26T05:01:52.653Z,18.50
2022-08-26T05:04:20.109Z,18.60
2022-08-26T05:06:48.201Z,18.60
2022-08-26T05:09:15.442Z,18.60
2022-08-26T05:11:42.483Z,18.70
2022-08-26T05:14:09.676Z,18.70
2022-08-26T05:16:36.353Z,18.80
2022-08-26T05:19:03.498Z,18.80
2022-08-26T05:21:30.100Z,18.90
2022-08-26T05:23:56.819Z,18.90
2022-08-26T05:26:28.875Z,19.10
2022-08-26T05:28:56.187Z,19.20
2022-08-26T05:31:24.418Z,19.30
2022-08-26T05:33:51.166Z,19.50
2022-08-26T05:36:20.264Z,19.60
2022-08-26T05:38:48.661Z,19.80
2022-08-26T05:41:16.584Z,19.90
2022-08-26T05:43:43.524Z,20.10
2022-08-26T05:46:10.559Z,20.20
2022-08-26T05:48:37.669Z,20.40
2022-08-26T05:51:06.311Z,20.60
2022-08-26T05:53:33.519Z,20.70
2022-08-26T05:56:02.264Z,20.90
2022-08-26T05:58:28.877Z,21.10
2022-08-26T06:01:04.439Z,21.30
2022-08-26T06:03:33.288Z,21.60
2022-08-26T06:06:04.405Z,21.80
2022-08-26T06:08:33.376Z,21.90
2022-08-26T06:11:01.373Z,22.20
2022-08-26T06:13:30.370Z,22.50
2022-08-26T06:15:59.268Z,22.80
2022-08-26T06:18:30.599Z,23.00
2022-08-26T06:20:58.385Z,23.20
2022-08-26T06:23:44.648Z,23.40
2022-08-26T06:26:11.834Z,23.60
2022-08-26T06:28:38.437Z,23.80
2022-08-26T06:31:06.035Z,23.90
2022-08-26T06:33:33.197Z,24.00
2022-08-26T06:36:01.131Z,24.40
2022-08-26T06:38:31.590Z,24.70
2022-08-26T06:40:59.824Z,24.90
2022-08-26T06:43:27.791Z,25.20
2022-08-26T06:46:04.257Z,25.50
2022-08-26T06:48:32.135Z,25.70
2022-08-26T06:51:06.497Z,25.80
2022-08-26T06:53:33.124Z,26.20
2022-08-26T06:56:02.771Z,26.50
2022-08-26T06:58:29.334Z,26.50
2022-08-26T07:01:01.993Z,26.50
2022-08-26T07:03:30.412Z,26.30
2022-08-26T07:06:04.863Z,26.10
2022-08-26T07:08:31.805Z,25.90
2022-08-26T07:10:58.479Z,25.80
2022-08-26T07:13:30.648Z,25.80
2022-08-26T07:15:58.045Z,25.70
2022-08-26T07:18:29.533Z,25.60
2022-08-26T07:20:56.080Z,25.70
2022-08-26T07:23:22.882Z,25.80
2022-08-26T07:25:49.728Z,25.90
2022-08-26T07:28:16.297Z,26.10
2022-08-26T07:30:43.439Z,26.10
2022-08-26T07:33:10.024Z,25.90
2022-08-26T07:35:37.816Z,26.00
2022-08-26T07:38:04.411Z,26.00
2022-08-26T07:40:32.076Z,26.00
2022-08-26T07:42:58.730Z,26.00
2022-08-26T07:45:27.625Z,26.10
2022-08-26T07:47:54.379Z,26.30
2022-08-26T07:50:22.322Z,26.50
2022-08-26T07:53:10.695Z,26.80
2022-08-26T07:55:37.540Z,27.00
2022-08-26T07:58:05.538Z,27.10
2022-08-26T08:00:32.894Z,27.20
2022-08-26T08:03:00.017Z,27.30
2022-08-26T08:05:33.596Z,27.30
2022-08-26T08:08:27.207Z,27.40
2022-08-26T08:10:48.859Z,27.40
2022-08-26T08:13:15.732Z,27.80
2022-08-26T08:15:42.353Z,27.90
2022-08-26T08:18:15.668Z,27.90
2022-08-26T08:20:54.440Z,27.90
2022-08-26T08:23:29.606Z,28.20
2022-08-26T08:26:03.652Z,28.50
2022-08-26T08:28:30.310Z,28.60
2022-08-26T08:30:57.767Z,28.90
2022-08-26T08:33:24.626Z,29.00
2022-08-26T08:35:51.235Z,29.10
2022-08-26T08:38:18.833Z,29.00
2022-08-26T08:40:45.971Z,29.10
2022-08-26T08:43:22.658Z,29.00
2022-08-26T08:45:51.236Z,29.20
2022-08-26T08:48:17.837Z,29.50
2022-08-26T08:50:47.259Z,29.70
2022-08-26T08:53:18.918Z,29.40
2022-08-26T08:55:51.617Z,29.70
2022-08-26T08:58:24.602Z,30.00
2022-08-26T09:00:54.034Z,30.20
2022-08-26T09:03:29.201Z,30.50
2022-08-26T09:05:58.789Z,30.70
2022-08-26T09:08:29.173Z,30.50
2022-08-26T09:10:57.100Z,30.30
2022-08-26T09:13:26.367Z,30.50
2022-08-26T09:16:10.357Z,30.40
2022-08-26T09:18:37.234Z,30.90
2022-08-26T09:21:05.821Z,31.20
2022-08-26T09:23:33.089Z,31.20
2022-08-26T09:26:04.318Z,31.30
2022-08-26T09:28:31.546Z,31.40
2022-08-26T09:31:12.087Z,31.60
2022-08-26T09:33:40.087Z,31.50
2022-08-26T09:36:15.201Z,31.40
2022-08-26T09:38:42.707Z,31.40
2022-08-26T09:41:24.642Z,31.50
2022-08-26T09:44:06.615Z,31.40
2022-08-26T09:46:33.442Z,31.10
2022-08-26T09:49:20.088Z,31.20
2022-08-26T09:51:47.083Z,31.50
2022-08-26T09:54:30.491Z,31.70
2022-08-26T09:57:10.686Z,31.70
2022-08-26T09:59:38.051Z,31.80
2022-08-26T10:02:26.065Z,31.90
2022-08-26T10:04:56.456Z,32.00
2022-08-26T10:07:41.581Z,32.10
2022-08-26T10:10:10.736Z,32.20
2022-08-26T10:12:39.621Z,32.00
2022-08-26T10:15:10.721Z,31.90
2022-08-26T10:17:38.422Z,31.50
2022-08-26T10:20:23.152Z,31.60
2022-08-26T10:22:54.452Z,31.80
2022-08-26T10:25:23.404Z,31.90
2022-08-26T10:27:53.846Z,31.90
2022-08-26T10:30:22.809Z,32.00
2022-08-26T10:32:55.516Z,32.30
2022-08-26T10:35:23.531Z,32.50
2022-08-26T10:37:54.263Z,32.80
2022-08-26T10:40:27.283Z,32.90
2022-08-26T10:43:07.091Z,32.90
2022-08-26T10:45:38.492Z,32.70
2022-08-26T10:48:07.652Z,32.70
2022-08-26T10:50:39.965Z,33.10
2022-08-26T10:53:26.494Z,33.20
2022-08-26T10:55:56.014Z,33.30
2022-08-26T10:58:42.617Z,33.60
2022-08-26T11:01:30.238Z,34.00
2022-08-26T11:04:10.409Z,34.10
2022-08-26T11:06:37.710Z,33.90
2022-08-26T11:09:05.787Z,33.50
2022-08-26T11:11:41.803Z,33.10
2022-08-26T11:14:08.357Z,33.20
2022-08-26T11:16:43.471Z,33.00
2022-08-26T11:19:12.538Z,33.40
2022-08-26T11:21:49.495Z,33.20
2022-08-26T11:24:36.454Z,33.20
2022-08-26T11:27:03.017Z,33.10
2022-08-26T11:29:49.257Z,32.90
2022-08-26T11:32:45.118Z,32.70
2022-08-26T11:35:17.948Z,32.80
2022-08-26T11:37:47.699Z,32.90
2022-08-26T11:40:16.221Z,33.20
2022-08-26T11:42:44.355Z,33.20
2022-08-26T11:45:17.411Z,33.30
2022-08-26T11:47:44.741Z,33.00
2022-08-26T11:50:16.851Z,33.00
2022-08-26T11:52:55.428Z,33.20
2022-08-26T11:55:23.269Z,33.00
2022-08-26T11:57:52.836Z,33.00
2022-08-26T12:00:27.978Z,32.90
2022-08-26T12:03:00.596Z,33.00
2022-08-26T12:05:31.418Z,32.60
2022-08-26T12:08:00.565Z,32.60
2022-08-26T12:10:30.088Z,32.50
2022-08-26T12:12:58.666Z,32.50
2022-08-26T12:15:26.346Z,32.50
2022-08-26T12:17:56.292Z,32.30
2022-08-26T12:20:48.523Z,32.40
2022-08-26T12:23:26.815Z,32.30
2022-08-26T12:26:02.024Z,32.40
2022-08-26T12:28:29.971Z,32.20
2022-08-26T12:31:06.208Z,32.20
2022-08-26T12:33:36.286Z,32.20
2022-08-26T12:36:04.857Z,32.30
2022-08-26T12:38:32.141Z,32.60
2022-08-26T12:40:58.722Z,32.80
2022-08-26T12:43:38.482Z,32.90
2022-08-26T12:46:06.676Z,33.20
2022-08-26T12:48:35.967Z,33.50
2022-08-26T12:51:03.084Z,33.70
2022-08-26T12:53:31.186Z,33.70
2022-08-26T12:56:00.218Z,33.80
2022-08-26T12:58:26.822Z,33.70
2022-08-26T13:00:55.310Z,34.00
2022-08-26T13:03:34.297Z,34.30
2022-08-26T13:06:16.004Z,34.20
2022-08-26T13:08:53.727Z,34.30
2022-08-26T13:11:21.611Z,34.50
2022-08-26T13:13:51.779Z,34.70
2022-08-26T13:16:19.622Z,34.50
2022-08-26T13:18:51.487Z,34.30
2022-08-26T13:21:19.669Z,34.20
2022-08-26T13:23:46.736Z,34.40
2022-08-26T13:26:13.339Z,34.40
2022-08-26T13:28:39.977Z,34.30
2022-08-26T13:31:06.753Z,34.40
2022-08-26T13:33:33.385Z,34.20
2022-08-26T13:36:00.600Z,34.40
2022-08-26T13:38:33.749Z,34.40
2022-08-26T13:41:02.442Z,34.20
2022-08-26T13:43:30.349Z,34.30
2022-08-26T13:45:57.025Z,34.40
2022-08-26T13:48:23.762Z,34.40
2022-08-26T13:50:50.653Z,34.70
2022-08-26T13:53:18.648Z,35.20
2022-08-26T13:55:45.212Z,35.40
2022-08-26T13:58:12.081Z,35.20
2022-08-26T14:00:39.578Z,34.10
2022-08-26T14:03:10.148Z,33.00
2022-08-26T14:05:39.295Z,32.60
2022-08-26T14:08:06.460Z,31.90
2022-08-26T14:10:33.119Z,31.50
2022-08-26T14:12:59.781Z,30.60
2022-08-26T14:15:26.492Z,28.70
2022-08-26T14:17:55.834Z,26.90
2022-08-26T14:20:24.994Z,25.00
2022-08-26T14:23:12.473Z,23.20
2022-08-26T14:25:39.082Z,22.30
2022-08-26T14:28:05.628Z,21.80
2022-08-26T14:30:32.173Z,21.60
2022-08-26T14:33:01.689Z,21.30
2022-08-26T14:35:29.099Z,21.20
2022-08-26T14:37:56.246Z,21.30
2022-08-26T14:40:24.232Z,21.20
2022-08-26T14:42:53.944Z,21.20
2022-08-26T14:45:22.150Z,21.00
2022-08-26T14:47:49.270Z,21.00
2022-08-26T14:50:17.234Z,20.80
2022-08-26T14:53:02.947Z,20.50
2022-08-26T14:55:31.461Z,20.40
2022-08-26T14:57:58.115Z,20.40
2022-08-26T15:00:24.714Z,20.40
2022-08-26T15:02:51.598Z,20.30
2022-08-26T15:05:18.488Z,20.30
2022-08-26T15:07:45.047Z,20.20
2022-08-26T15:10:13.836Z,20.20
2022-08-26T15:12:40.834Z,20.20
2022-08-26T15:15:08.254Z,20.20
2022-08-26T15:17:35.257Z,20.20
2022-08-26T15:20:02.026Z,20.20
2022-08-26T15:22:29.452Z,20.10
2022-08-26T15:24:57.033Z,20.00
2022-08-26T15:27:23.627Z,20.10
2022-08-26T15:29:50.812Z,20.10
2022-08-26T15:32:17.499Z,20.00
2022-08-26T15:34:44.319Z,20.00
2022-08-26T15:37:11.077Z,20.00
2022-08-26T15:39:38.098Z,20.10
2022-08-26T15:42:04.881Z,20.10
2022-08-26T15:44:31.530Z,20.10
2022-08-26T15:46:59.108Z,20.10
2022-08-26T15:49:26.009Z,20.10
2022-08-26T15:51:52.693Z,20.20
2022-08-26T15:54:21.050Z,20.10
2022-08-26T15:56:50.461Z,20.20
2022-08-26T15:59:17.178Z,20.10
2022-08-26T16:01:43.950Z,20.20
2022-08-26T16:04:11.353Z,20.20
2022-08-26T16:06:38.756Z,20.20
2022-08-26T16:09:05.842Z,20.20
2022-08-26T16:11:32.947Z,20.10
2022-08-26T16:13:59.726Z,20.10
2022-08-26T16:16:26.948Z,20.10
2022-08-26T16:18:53.788Z,20.10
2022-08-26T16:21:24.554Z,20.00
2022-08-26T16:23:51.740Z,20.00
2022-08-26T16:26:19.556Z,20.10
2022-08-26T16:28:46.144Z,20.00
2022-08-26T16:31:13.291Z,20.10
2022-08-26T16:33:40.578Z,20.10
2022-08-26T16:36:07.954Z,20.10
2022-08-26T16:38:35.528Z,20.00
2022-08-26T16:41:02.203Z,20.00
2022-08-26T16:43:28.873Z,20.00
2022-08-26T16:45:55.951Z,20.00
2022-08-26T16:48:23.510Z,20.00
2022-08-26T16:50:50.561Z,19.90
2022-08-26T16:53:17.119Z,20.00
2022-08-26T16:55:47.394Z,19.90
2022-08-26T16:58:14.602Z,20.10
2022-08-26T17:00:41.177Z,20.20
2022-08-26T17:03:07.898Z,20.30
2022-08-26T17:05:34.660Z,20.50
2022-08-26T17:08:01.234Z,20.60
2022-08-26T17:10:28.484Z,20.90
2022-08-26T17:12:55.439Z,21.20
2022-08-26T17:15:23.711Z,21.20
2022-08-26T17:17:50.969Z,21.00
2022-08-26T17:20:17.819Z,20.80
2022-08-26T17:22:47.254Z,20.60
2022-08-26T17:25:15.861Z,20.50
2022-08-26T17:27:42.679Z,20.40
2022-08-26T17:30:09.833Z,20.30
2022-08-26T17:32:36.611Z,20.30
2022-08-26T17:35:03.925Z,20.30
2022-08-26T17:37:30.567Z,20.20
2022-08-26T17:39:58.344Z,20.20
2022-08-26T17:42:31.631Z,20.20
2022-08-26T17:44:58.671Z,20.20
2022-08-26T17:47:25.389Z,20.20
2022-08-26T17:49:52.029Z,20.30
2022-08-26T17:52:18.602Z,20.30
2022-08-26T17:54:45.210Z,20.20
2022-08-26T17:57:11.788Z,20.20
2022-08-26T17:59:39.016Z,20.20
2022-08-26T18:02:07.642Z,20.20
2022-08-26T18:04:34.291Z,20.20
2022-08-26T18:07:01.389Z,20.10
2022-08-26T18:09:31.633Z,20.10
2022-08-26T18:11:58.949Z,20.00
2022-08-26T18:14:25.879Z,20.00
2022-08-26T18:16:52.489Z,20.00
2022-08-26T18:19:19.576Z,19.90
2022-08-26T18:21:46.287Z,20.00
2022-08-26T18:24:14.271Z,20.00
2022-08-26T18:26:47.925Z,20.10
2022-08-26T18:29:15.156Z,20.00
2022-08-26T18:31:41.831Z,20.00
2022-08-26T18:34:12.706Z,20.00
2022-08-26T18:36:42.198Z,20.00
2022-08-26T18:39:09.166Z,20.00
2022-08-26T18:41:40.260Z,19.90
2022-08-26T18:44:09.480Z,20.00
2022-08-26T18:46:38.359Z,20.00
2022-08-26T18:49:05.015Z,20.00
2022-08-26T18:51:32.897Z,19.90
2022-08-26T18:54:00.415Z,20.00
2022-08-26T18:56:27.550Z,20.00
2022-08-26T18:58:54.331Z,20.00
2022-08-26T19:01:25.388Z,20.00
2022-08-26T19:03:54.406Z,20.00
2022-08-26T19:06:22.184Z,20.00
2022-08-26T19:08:49.901Z,19.90
2022-08-26T19:11:17.124Z,20.00
2022-08-26T19:13:58.688Z,20.00
2022-08-26T19:16:26.158Z,20.30
2022-08-26T19:18:53.554Z,20.40
2022-08-26T19:21:20.918Z,20.50
2022-08-26T19:23:48.176Z,20.50
2022-08-26T19:26:15.088Z,20.60
2022-08-26T19:28:41.702Z,20.50
2022-08-26T19:31:10.422Z,20.60
2022-08-26T19:33:39.780Z,20.60
2022-08-26T19:36:06.844Z,20.80
2022-08-26T19:38:33.726Z,20.90
2022-08-26T19:41:00.357Z,20.90
2022-08-26T19:43:27.111Z,20.70
2022-08-26T19:45:53.732Z,20.60
2022-08-26T19:48:20.467Z,20.50
2022-08-26T19:50:47.163Z,20.40
2022-08-26T19:53:13.797Z,20.30
2022-08-26T19:55:40.356Z,20.30
2022-08-26T19:58:07.891Z,20.20
2022-08-26T20:00:36.635Z,20.10
2022-08-26T20:03:03.535Z,20.10
2022-08-26T20:05:30.628Z,20.10
2022-08-26T20:07:57.269Z,20.10
2022-08-26T20:10:23.964Z,20.00
2022-08-26T20:12:51.851Z,20.00
2022-08-26T20:15:19.494Z,20.00
2022-08-26T20:17:46.278Z,19.90
2022-08-26T20:20:34.705Z,19.90
2022-08-26T20:23:03.601Z,19.90
2022-08-26T20:25:32.452Z,19.90
2022-08-26T20:27:59.428Z,19.80
2022-08-26T20:30:26.104Z,19.80
2022-08-26T20:32:52.735Z,19.80
2022-08-26T20:35:19.346Z,19.80
2022-08-26T20:37:46.007Z,19.80
2022-08-26T20:40:13.641Z,19.80
2022-08-26T20:42:40.305Z,19.80
2022-08-26T20:45:07.910Z,19.80
2022-08-26T20:47:34.583Z,19.80
2022-08-26T20:50:02.361Z,19.80
2022-08-26T20:52:29.024Z,19.80
2022-08-26T20:54:55.734Z,19.80
2022-08-26T20:57:22.359Z,20.20
2022-08-26T20:59:49.121Z,19.70
2022-08-26T21:02:15.893Z,19.70
2022-08-26T21:04:42.556Z,19.70
2022-08-26T21:07:09.360Z,19.70
2022-08-26T21:09:36.066Z,19.70
2022-08-26T21:12:04.084Z,19.70
2022-08-26T21:14:30.682Z,19.60
2022-08-26T21:16:58.118Z,19.50
2022-08-26T21:19:24.859Z,19.60
2022-08-26T21:21:51.454Z,19.50
2022-08-26T21:24:18.089Z,19.60
2022-08-26T21:26:44.907Z,19.50
2022-08-26T21:29:13.455Z,19.50
2022-08-26T21:31:45.056Z,19.60
2022-08-26T21:34:13.489Z,19.50
2022-08-26T21:36:40.162Z,19.50
2022-08-26T21:39:11.220Z,19.50
2022-08-26T21:41:38.444Z,19.50
2022-08-26T21:44:05.050Z,19.50
2022-08-26T21:46:31.661Z,19.40
2022-08-26T21:48:59.641Z,19.40
2022-08-26T21:51:27.935Z,19.30
2022-08-26T21:53:55.496Z,19.30
2022-08-26T21:56:26.161Z,19.30
2022-08-26T21:58:53.248Z,19.20
2022-08-26T22:01:21.589Z,19.20
2022-08-26T22:03:49.141Z,19.20
2022-08-26T22:06:17.386Z,19.20
2022-08-26T22:08:44.075Z,19.20
2022-08-26T22:11:10.806Z,19.20
2022-08-26T22:13:38.867Z,19.20
2022-08-26T22:16:05.782Z,19.20
2022-08-26T22:18:32.722Z,19.20
2022-08-26T22:21:00.697Z,19.20
2022-08-26T22:23:27.385Z,19.10
2022-08-26T22:25:54.463Z,19.10
2022-08-26T22:28:21.494Z,19.10
2022-08-26T22:30:48.674Z,19.10
2022-08-26T22:33:15.883Z,19.10
2022-08-26T22:35:44.657Z,19.10
2022-08-26T22:38:11.552Z,19.00
2022-08-26T22:40:38.434Z,19.00
2022-08-26T22:43:05.550Z,19.00
2022-08-26T22:45:32.374Z,19.00
2022-08-26T22:47:59.995Z,19.00
2022-08-26T22:50:26.595Z,19.00
2022-08-26T22:52:53.148Z,19.00
2022-08-26T22:55:19.750Z,18.90
2022-08-26T22:57:46.364Z,18.90
2022-08-26T23:00:13.773Z,18.90
2022-08-26T23:02:41.227Z,18.90
2022-08-26T23:05:08.551Z,18.90
2022-08-26T23:07:36.230Z,18.90
2022-08-26T23:10:04.890Z,18.90
2022-08-26T23:12:32.490Z,18.90
2022-08-26T23:14:59.150Z,18.80
2022-08-26T23:17:25.762Z,18.80
2022-08-26T23:19:52.360Z,18.90
2022-08-26T23:22:19.023Z,18.80
2022-08-26T23:24:45.592Z,18.80
2022-08-26T23:27:12.132Z,18.80
2022-08-26T23:29:39.612Z,18.80
2022-08-26T23:32:06.314Z,18.80
2022-08-26T23:34:51.938Z,18.80
2022-08-26T23:37:19.574Z,18.80
2022-08-26T23:39:47.474Z,18.80
2022-08-26T23:42:14.075Z,18.80
2022-08-26T23:44:40.744Z,18.80
2022-08-26T23:47:07.817Z,18.80
2022-08-26T23:49:34.635Z,18.80
2022-08-26T23:52:19.775Z,18.80
2022-08-26T23:54:48.649Z,18.80
2022-08-26T23:57:16.326Z,18.80
2022-08-26T23:59:43.210Z,18.80
